Time;durP1;ratioP1;P1;durP2;ratioP2;P2;SDS_P1;SDS_P2;PMS_P1;PMS_P2;Temp;Humidity;BMP_temperature;BMP_pressure;BME280_temperature;BME280_humidity;BME280_pressure;Samples;Min_cycle;Max_cycle;Signal;HPM_P1;HPM_P2
2021/01/22 00:00:46;;;;;;;70.47;27.87;;;;;;;-4.29;99.25;99222.92;1720213;83;21399;-78
2021/01/22 00:03:13;;;;;;;70.25;29.00;;;;;;;-4.30;99.48;99211.91;1747638;82;21021;-78
2021/01/22 00:05:41;;;;;;;64.97;26.87;;;;;;;-4.28;99.61;99217.04;1749962;82;21048;-77
2021/01/22 00:08:08;;;;;;;63.23;27.95;;;;;;;-4.28;99.65;99204.45;1750096;81;21123;-77
2021/01/22 00:10:36;;;;;;;60.50;26.07;;;;;;;-4.29;99.63;99204.16;1749609;82;21183;-78
2021/01/22 00:13:03;;;;;;;61.65;25.95;;;;;;;-4.28;99.64;99207.66;1751129;81;21886;-78
2021/01/22 00:15:31;;;;;;;64.72;26.95;;;;;;;-4.28;99.64;99203.13;1750200;82;21570;-81
2021/01/22 00:17:59;;;;;;;69.05;27.15;;;;;;;-4.27;99.67;99199.39;1752645;81;21152;-80
2021/01/22 00:20:28;;;;;;;64.20;27.45;;;;;;;-4.28;99.78;99201.78;1770620;81;20990;-80
2021/01/22 00:22:56;;;;;;;61.58;26.33;;;;;;;-4.27;99.77;99196.72;1770943;81;21146;-82
2021/01/22 00:25:23;;;;;;;66.77;26.87;;;;;;;-4.28;99.64;99196.94;1765644;80;21128;-82
2021/01/22 00:27:51;;;;;;;65.17;27.98;;;;;;;-4.29;99.54;99197.98;1765849;81;21018;-80
2021/01/22 00:30:19;;;;;;;66.57;27.20;;;;;;;-4.33;99.42;99199.78;1765750;81;20982;-80
2021/01/22 00:32:47;;;;;;;64.27;26.30;;;;;;;-4.36;99.44;99200.23;1765703;81;21063;-80
2021/01/22 00:35:14;;;;;;;62.75;27.20;;;;;;;-4.38;99.42;99201.51;1765975;81;21085;-80
2021/01/22 00:37:42;;;;;;;58.80;25.20;;;;;;;-4.42;99.42;99193.63;1765907;81;21364;-81
2021/01/22 00:40:10;;;;;;;69.65;28.80;;;;;;;-4.44;99.43;99193.85;1765706;80;21026;-79
2021/01/22 00:42:39;;;;;;;62.23;25.97;;;;;;;-4.45;99.49;99195.42;1765818;81;20998;-78
2021/01/22 00:45:08;;;;;;;60.98;26.65;;;;;;;-4.46;99.53;99184.41;1765778;81;21061;-78
2021/01/22 00:47:35;;;;;;;56.75;24.18;;;;;;;-4.46;99.58;99189.77;1765934;81;21038;-79
2021/01/22 00:50:04;;;;;;;64.90;27.77;;;;;;;-4.46;99.73;99180.39;1765813;80;21488;-79
2021/01/22 00:52:32;;;;;;;73.10;27.73;;;;;;;-4.45;99.80;99179.34;1765472;81;21515;-79
2021/01/22 00:55:00;;;;;;;64.92;26.35;;;;;;;-4.46;99.82;99176.37;1765839;81;21128;-77
2021/01/22 00:57:47;;;;;;;77.35;27.32;;;;;;;-4.46;99.84;99171.01;1765833;80;21147;-75
2021/01/22 01:00:17;;;;;;;62.40;26.12;;;;;;;-4.47;99.89;99169.38;1765936;81;21469;-75
2021/01/22 01:02:46;;;;;;;64.50;26.07;;;;;;;-4.46;99.95;99172.34;1750090;80;21529;-75
2021/01/22 01:05:17;;;;;;;66.72;28.17;;;;;;;-4.46;100.00;99163.79;1781006;80;20954;-75
2021/01/22 01:07:44;;;;;;;63.28;27.67;;;;;;;-4.46;100.00;99166.47;1758624;80;20935;-77
2021/01/22 01:10:13;;;;;;;74.82;29.40;;;;;;;-4.43;100.00;99161.17;1781024;80;21022;-76
2021/01/22 01:12:59;;;;;;;73.92;30.40;;;;;;;-4.41;100.00;99159.91;1758845;81;21556;-77
2021/01/22 01:15:49;;;;;;;57.53;24.70;;;;;;;-4.33;100.00;99149.39;1909926;74;22700;-78
2021/01/22 01:18:16;;;;;;;62.35;25.68;;;;;;;-4.35;100.00;99159.00;1849683;77;21054;-78
2021/01/22 01:20:46;;;;;;;68.15;28.40;;;;;;;-4.35;100.00;99151.48;1843679;77;21170;-78
2021/01/22 01:23:14;;;;;;;71.12;30.17;;;;;;;-4.34;100.00;99151.77;1816133;79;20936;-78
2021/01/22 01:25:42;;;;;;;74.90;31.42;;;;;;;-4.33;100.00;99149.39;1816439;79;21561;-79
2021/01/22 01:28:09;;;;;;;75.00;30.12;;;;;;;-4.33;100.00;99149.39;1816305;79;20884;-81
2021/01/22 01:30:38;;;;;;;68.65;26.15;;;;;;;-4.32;100.00;99142.45;1816367;79;21565;-80
2021/01/22 01:33:06;;;;;;;73.15;29.67;;;;;;;-4.31;100.00;99139.25;1816271;79;21792;-80
2021/01/22 01:35:34;;;;;;;68.47;28.42;;;;;;;-4.32;100.00;99145.66;1816257;79;21039;-78
2021/01/22 01:38:02;;;;;;;70.32;30.92;;;;;;;-4.32;100.00;99142.98;1816328;79;20995;-79
2021/01/22 01:40:30;;;;;;;61.37;26.00;;;;;;;-4.32;100.00;99135.76;1816112;79;20939;-78
2021/01/22 01:42:57;;;;;;;67.08;26.27;;;;;;;-4.30;100.00;99140.89;1816359;79;21094;-77
2021/01/22 01:45:25;;;;;;;76.20;30.23;;;;;;;-4.30;100.00;99132.84;1816368;79;21359;-79
2021/01/22 01:47:53;;;;;;;84.37;31.87;;;;;;;-4.30;100.00;99136.05;1815538;78;21117;-79
2021/01/22 01:50:21;;;;;;;70.42;30.17;;;;;;;-4.28;100.00;99134.78;1785688;79;21185;-83
2021/01/22 01:52:49;;;;;;;69.30;29.63;;;;;;;-4.27;100.00;99139.09;1814940;79;20900;-79
2021/01/22 01:55:17;;;;;;;71.95;27.45;;;;;;;-4.24;100.00;99129.77;1814912;79;20936;-79
2021/01/22 01:57:45;;;;;;;73.60;29.02;;;;;;;-4.24;100.00;99139.16;1814935;78;22305;-81
2021/01/22 02:00:13;;;;;;;77.03;29.82;;;;;;;-4.25;100.00;99128.95;1814803;79;20937;-77
2021/01/22 02:02:42;;;;;;;74.87;29.85;;;;;;;-4.25;100.00;99130.30;1814997;79;21071;-80
2021/01/22 02:05:12;;;;;;;65.42;26.62;;;;;;;-4.23;100.00;99136.24;1814866;79;20940;-84
2021/01/22 02:07:39;;;;;;;58.25;25.60;;;;;;;-4.20;100.00;99125.59;1814920;79;20948;-84
2021/01/22 02:10:09;;;;;;;72.72;31.95;;;;;;;-4.16;100.00;99128.10;1814888;79;21507;-81
2021/01/22 02:12:37;;;;;;;74.72;31.60;;;;;;;-4.16;100.00;99124.08;1814780;78;20956;-82
2021/01/22 02:15:07;;;;;;;70.08;29.15;;;;;;;-4.15;100.00;99122.52;1789511;79;21039;-82
2021/01/22 02:17:34;;;;;;;79.30;32.53;;;;;;;-4.12;100.00;99114.01;1818329;79;20952;-82
2021/01/22 02:20:26;;;;;;;76.62;29.02;;;;;;;-4.13;100.00;99108.35;1818373;79;20999;-82
2021/01/22 02:22:55;;;;;;;69.47;28.47;;;;;;;-4.13;100.00;99113.72;1775926;78;21568;-83
2021/01/22 02:25:31;;;;;;;76.62;29.37;;;;;;;-4.13;100.00;99112.90;1793247;79;21588;-84
2021/01/22 02:28:14;;;;;;;73.30;29.98;;;;;;;-4.10;100.00;99106.55;1873743;76;22788;-79
2021/01/22 02:30:45;;;;;;;69.32;29.00;;;;;;;-4.13;100.00;99097.62;1841758;78;20991;-80
2021/01/22 02:33:13;;;;;;;68.30;27.62;;;;;;;-4.12;100.00;99093.09;1842015;78;21136;-79
2021/01/22 02:35:41;;;;;;;73.47;28.50;;;;;;;-4.11;100.00;99092.04;1841614;78;21107;-79
2021/01/22 02:38:09;;;;;;;75.37;31.85;;;;;;;-4.11;100.00;99088.83;1811960;78;20924;-80
2021/01/22 02:40:37;;;;;;;68.85;28.62;;;;;;;-4.09;100.00;99096.13;1842783;78;21044;-80
2021/01/22 02:43:05;;;;;;;68.22;28.40;;;;;;;-4.10;100.00;99085.10;1843090;78;20937;-79
2021/01/22 02:45:32;;;;;;;77.05;31.05;;;;;;;-4.09;100.00;99091.28;1841966;78;21344;-79
2021/01/22 02:47:59;;;;;;;80.40;31.45;;;;;;;-4.10;100.00;99090.47;1841582;77;21004;-80
2021/01/22 02:50:32;;;;;;;75.45;31.45;;;;;;;-4.09;100.00;99091.28;1841794;77;21086;-79
2021/01/22 02:53:04;;;;;;;72.97;30.02;;;;;;;-4.08;100.00;99078.98;1841945;78;26930;-82
2021/01/22 02:55:33;;;;;;;71.75;28.70;;;;;;;-4.07;100.00;99080.63;1841863;78;20976;-82
2021/01/22 02:58:18;;;;;;;70.10;30.60;;;;;;;-4.05;100.00;99077.19;1841678;78;21319;-81
2021/01/22 03:00:48;;;;;;;67.08;28.60;;;;;;;-4.03;100.00;99080.94;1841471;78;20936;-82
2021/01/22 03:04:01;;;;;;;66.42;26.15;;;;;;;-4.03;100.00;99079.08;1841734;78;20928;-82
2021/01/22 03:06:30;;;;;;;;;;;;;;;-3.99;100.00;99072.20;1844390;78;21035;-81
2021/01/22 03:08:58;;;;;;;75.22;30.40;;;;;;;-3.96;100.00;99075.47;1841772;78;20130;-78
2021/01/22 03:11:25;;;;;;;68.50;27.90;;;;;;;-3.94;100.00;99080.89;1841715;77;21320;-79
2021/01/22 03:13:54;;;;;;;65.05;26.65;;;;;;;-3.91;100.00;99080.42;1841629;78;20940;-78
2021/01/22 03:16:21;;;;;;;64.03;27.45;;;;;;;-3.89;100.00;99082.34;1841645;78;20960;-79
2021/01/22 03:19:03;;;;;;;74.12;29.15;;;;;;;-3.87;100.00;99084.27;1841621;77;21022;-79
2021/01/22 03:21:31;;;;;;;73.65;32.25;;;;;;;-3.85;100.00;99071.97;1827425;78;20992;-79
2021/01/22 03:24:00;;;;;;;78.90;30.75;;;;;;;-3.82;100.00;99080.89;1808629;79;21184;-77
2021/01/22 03:26:28;;;;;;;71.85;29.27;;;;;;;-3.82;100.00;99070.16;1808456;79;21584;-78
2021/01/22 03:28:56;;;;;;;70.52;30.97;;;;;;;-3.81;100.00;99071.80;1808689;79;21489;-80
2021/01/22 03:31:23;;;;;;;66.17;26.33;;;;;;;-3.82;100.00;99077.69;1808693;79;21482;-80
2021/01/22 03:33:51;;;;;;;68.12;27.62;;;;;;;-3.80;100.00;99074.77;1808632;79;21561;-81
2021/01/22 03:36:18;;;;;;;63.83;28.45;;;;;;;-3.81;100.00;99073.13;1805391;78;21203;-78
2021/01/22 03:38:46;;;;;;;63.75;26.95;;;;;;;-3.81;100.00;99069.11;1776286;80;21086;-79
2021/01/22 03:41:13;;;;;;;63.95;27.42;;;;;;;-3.82;100.00;99067.48;1776098;80;20944;-78
2021/01/22 03:43:40;;;;;;;66.55;28.10;;;;;;;-3.82;100.00;99066.95;1776151;80;20979;-81
2021/01/22 03:46:08;;;;;;;64.17;29.07;;;;;;;-3.82;100.00;99064.27;1776140;80;21141;-80
2021/01/22 03:48:37;;;;;;;63.42;26.80;;;;;;;-3.81;100.00;99061.88;1776108;80;21354;-81
2021/01/22 03:51:05;;;;;;;64.40;27.05;;;;;;;-3.79;100.00;99061.65;1776115;80;21521;-79
2021/01/22 03:53:32;;;;;;;62.13;27.50;;;;;;;-3.77;100.00;99059.55;1776160;80;21011;-79
2021/01/22 03:56:00;;;;;;;65.67;29.48;;;;;;;-3.78;100.00;99068.12;1800181;78;21012;-78
2021/01/22 03:58:28;;;;;;;63.65;27.27;;;;;;;-3.77;100.00;99067.59;1806330;79;21633;-79
2021/01/22 04:00:55;;;;;;;64.77;28.10;;;;;;;-3.76;100.00;99072.73;1806272;79;21355;-79
2021/01/22 04:03:24;;;;;;;66.80;28.27;;;;;;;-3.74;100.00;99063.92;1806322;79;21040;-77
2021/01/22 04:05:51;;;;;;;65.30;28.15;;;;;;;-3.72;100.00;99067.19;1806402;79;20995;-78
2021/01/22 04:08:19;;;;;;;62.40;27.67;;;;;;;-3.71;100.00;99063.97;1806224;78;21052;-77
2021/01/22 04:10:46;;;;;;;66.55;25.60;;;;;;;-3.70;100.00;99068.29;1806305;79;20909;-79
2021/01/22 04:13:14;;;;;;;59.95;27.22;;;;;;;-3.69;100.00;99067.23;1806373;79;22068;-78
2021/01/22 04:15:42;;;;;;;61.40;28.80;;;;;;;-3.70;100.00;99060.24;1806181;79;20988;-78
2021/01/22 04:18:10;;;;;;;67.80;29.18;;;;;;;-3.69;100.00;99069.39;1806365;79;21472;-78
2021/01/22 04:20:39;;;;;;;59.25;27.22;;;;;;;-3.69;100.00;99057.85;1806222;79;21063;-78
2021/01/22 04:23:07;;;;;;;68.60;29.87;;;;;;;-3.68;100.00;99061.64;1806255;79;20917;-77
2021/01/22 04:25:34;;;;;;;64.65;30.75;;;;;;;-3.66;100.00;99066.77;1805657;79;22697;-78
2021/01/22 04:28:03;;;;;;;73.72;34.43;;;;;;;-3.64;100.00;99057.96;1809483;78;21555;-77
2021/01/22 04:30:30;;;;;;;68.52;31.17;;;;;;;-3.63;100.00;99066.30;1811510;79;21007;-78
2021/01/22 04:32:58;;;;;;;73.57;28.77;;;;;;;-3.61;100.00;99066.88;1811555;79;21070;-79
2021/01/22 04:35:25;;;;;;;63.20;27.40;;;;;;;-3.62;100.00;99059.88;1811524;79;21046;-79
2021/01/22 04:37:53;;;;;;;70.22;29.25;;;;;;;-3.62;100.00;99061.22;1811524;79;21807;-79
2021/01/22 04:40:20;;;;;;;67.92;28.87;;;;;;;-3.61;100.00;99056.67;1811345;79;20988;-78
2021/01/22 04:42:48;;;;;;;75.30;30.60;;;;;;;-3.62;100.00;99053.17;1811633;78;21019;-79
2021/01/22 04:45:16;;;;;;;74.40;30.30;;;;;;;-3.63;100.00;99052.89;1813318;79;21078;-77
2021/01/22 04:47:43;;;;;;;69.85;30.30;;;;;;;-3.63;100.00;99044.84;1813337;79;21082;-80
2021/01/22 04:50:14;;;;;;;77.45;30.88;;;;;;;-3.63;100.00;99048.86;1813288;79;21813;-86
2021/01/22 04:52:46;;;;;;;72.90;30.95;;;;;;;-3.63;100.00;99051.55;1813272;79;20999;-80
2021/01/22 04:55:15;;;;;;;77.05;31.35;;;;;;;-3.63;100.00;99044.02;1813530;79;20991;-80
2021/01/22 04:57:44;;;;;;;72.95;33.55;;;;;;;-3.63;100.00;99048.86;1813340;79;21023;-80
2021/01/22 05:00:14;;;;;;;74.50;31.90;;;;;;;-3.63;100.00;99040.00;1813267;79;20924;-79
2021/01/22 05:02:42;;;;;;;66.82;28.38;;;;;;;-3.62;100.00;99041.10;1813285;79;22097;-79
2021/01/22 05:05:10;;;;;;;78.65;32.95;;;;;;;-3.62;100.00;99049.16;1813313;79;21003;-78
2021/01/22 05:07:38;;;;;;;73.28;32.93;;;;;;;-3.62;100.00;99043.79;1813288;79;21003;-80
2021/01/22 05:10:08;;;;;;;80.35;31.37;;;;;;;-3.62;100.00;99046.47;1813223;79;21031;-82
2021/01/22 05:12:36;;;;;;;73.45;31.10;;;;;;;-3.61;100.00;99047.28;1815096;79;21724;-78
2021/01/22 05:15:25;;;;;;;78.52;32.40;;;;;;;-3.60;100.00;99054.28;1813674;78;21356;-78
2021/01/22 05:18:02;;;;;;;75.62;32.83;;;;;;;-3.59;100.00;99066.13;1813144;79;21019;-77
2021/01/22 05:20:36;;;;;;;104.43;47.53;;;;;;;-3.57;100.00;99064.02;1809768;79;21154;-79
2021/01/22 05:23:07;;;;;;;99.22;46.42;;;;;;;-3.56;100.00;99072.88;1811644;79;21455;-78
2021/01/22 05:26:00;;;;;;;86.28;38.17;;;;;;;-3.54;100.00;99066.75;1809947;79;21177;-84
2021/01/22 05:28:46;;;;;;;75.05;31.93;;;;;;;-3.54;100.00;99069.44;1807557;79;21668;-77
2021/01/22 05:31:17;;;;;;;76.72;31.82;;;;;;;-3.52;100.00;99062.78;1800628;79;21066;-78
2021/01/22 05:33:59;;;;;;;70.20;31.02;;;;;;;-3.53;100.00;99065.18;1781336;80;20940;-76
2021/01/22 05:36:30;;;;;;;79.47;32.93;;;;;;;-3.52;100.00;99060.11;1781152;80;21541;-76
2021/01/22 05:38:59;;;;;;;85.05;35.17;;;;;;;-3.50;100.00;99056.66;1788524;79;21192;-77
2021/01/22 05:41:30;;;;;;;101.12;40.50;;;;;;;-3.49;100.00;99056.13;1794669;80;21205;-74
2021/01/22 05:43:58;;;;;;;117.00;44.03;;;;;;;-3.49;100.00;99057.48;1794693;80;21642;-74
2021/01/22 05:46:27;;;;;;;102.78;38.20;;;;;;;-3.50;100.00;99051.29;1794758;80;21603;-74
2021/01/22 05:49:12;;;;;;;111.20;41.50;;;;;;;-3.51;100.00;99051.00;1794739;80;21160;-76
2021/01/22 05:51:42;;;;;;;85.80;35.95;;;;;;;-3.50;100.00;99053.16;1794691;80;21659;-76
2021/01/22 05:54:10;;;;;;;79.37;34.38;;;;;;;-3.51;100.00;99044.82;1752450;80;21484;-77
2021/01/22 05:56:37;;;;;;;76.67;33.08;;;;;;;-3.52;100.00;99057.42;1752393;80;20998;-77
2021/01/22 05:59:16;;;;;;;68.55;30.15;;;;;;;-3.51;100.00;99057.70;1803433;79;20922;-76
2021/01/22 06:01:44;;;;;;;84.90;33.58;;;;;;;-3.50;100.00;99053.98;1799388;79;21451;-73
2021/01/22 06:04:11;;;;;;;71.28;30.60;;;;;;;-3.48;100.00;99058.58;1801931;79;21017;-73
2021/01/22 06:06:39;;;;;;;82.65;33.98;;;;;;;-3.46;100.00;99048.92;1797060;79;21329;-77
2021/01/22 06:09:07;;;;;;;80.87;34.27;;;;;;;-3.45;100.00;99058.08;1803042;79;20948;-77
2021/01/22 06:11:37;;;;;;;75.30;33.18;;;;;;;-3.42;100.00;99062.97;1811326;78;21489;-77
2021/01/22 06:14:07;;;;;;;75.35;33.10;;;;;;;-3.42;100.00;99065.66;1813292;79;21058;-80
2021/01/22 06:16:36;;;;;;;73.50;32.10;;;;;;;-3.40;100.00;99063.55;1813295;78;21589;-77
2021/01/22 06:19:06;;;;;;;77.42;35.58;;;;;;;-3.37;100.00;99066.29;1813171;79;21363;-78
2021/01/22 06:21:40;;;;;;;69.85;31.82;;;;;;;-3.36;100.00;99060.69;1801689;79;20909;-80
2021/01/22 06:24:08;;;;;;;78.22;35.00;;;;;;;-3.33;100.00;99062.08;1811569;79;21003;-78
2021/01/22 06:26:38;;;;;;;77.20;33.25;;;;;;;-3.32;100.00;99058.34;1813186;79;21153;-77
2021/01/22 06:29:07;;;;;;;70.28;30.45;;;;;;;-3.30;100.00;99052.73;1813139;78;20868;-77
2021/01/22 06:31:38;;;;;;;73.10;32.33;;;;;;;-3.28;100.00;99050.10;1813279;79;21192;-79
2021/01/22 06:34:07;;;;;;;73.80;31.75;;;;;;;-3.27;100.00;99054.94;1812421;79;20983;-78
2021/01/22 06:36:34;;;;;;;69.30;30.70;;;;;;;-3.25;100.00;99056.87;1812928;78;21035;-76
2021/01/22 06:39:03;;;;;;;76.77;34.60;;;;;;;-3.25;100.00;99046.13;1808458;79;21127;-76
2021/01/22 06:41:32;;;;;;;73.07;31.93;;;;;;;-3.22;100.00;99046.99;1797308;78;21156;-76
2021/01/22 06:44:00;;;;;;;77.22;33.23;;;;;;;-3.20;100.00;99051.59;1797598;79;22262;-82
2021/01/22 06:46:31;;;;;;;80.77;35.58;;;;;;;-3.17;100.00;99052.47;1797382;79;20994;-76
2021/01/22 06:49:02;;;;;;;81.78;32.55;;;;;;;-3.14;100.00;99050.12;1790388;79;21654;-75
2021/01/22 06:51:34;;;;;;;83.62;34.53;;;;;;;-3.12;100.00;99039.95;1752177;81;21128;-72
2021/01/22 06:54:08;;;;;;;;;;;;;;;-3.09;100.00;99042.69;1739303;81;21140;-76
2021/01/22 06:56:44;;;;;;;82.17;33.45;;;;;;;-3.07;100.00;99041.92;1739771;81;21661;-84
2021/01/22 06:59:37;;;;;;;84.47;33.85;;;;;;;-3.06;100.00;99049.73;1739854;82;21111;-81
2021/01/22 07:02:41;;;;;;;80.45;33.28;;;;;;;-3.03;100.00;99037.17;1739453;81;21500;-76
2021/01/22 07:05:35;;;;;;;76.28;33.98;;;;;;;-2.99;100.00;99046.91;1739698;82;21171;-78
2021/01/22 07:08:02;;;;;;;72.72;33.33;;;;;;;-2.96;100.00;99050.47;1739948;82;21096;-78
2021/01/22 07:10:56;;;;;;;75.52;31.57;;;;;;;-2.90;100.00;99048.69;1741963;80;21379;-74
2021/01/22 07:13:35;;;;;;;89.28;36.55;;;;;;;-2.85;100.00;99046.88;1752387;81;21551;-75
2021/01/22 07:16:09;;;;;;;71.65;33.30;;;;;;;-2.79;100.00;99050.48;1755973;81;21107;-76
2021/01/22 07:18:52;;;;;;;73.45;33.35;;;;;;;-2.70;100.00;99045.81;1754881;80;21081;-76
2021/01/22 07:21:41;;;;;;;83.62;37.93;;;;;;;-2.61;100.00;99044.08;1754678;80;22418;-78
2021/01/22 07:24:15;;;;;;;87.25;37.10;;;;;;;-2.51;100.00;99044.25;1753468;80;21229;-78
2021/01/22 07:26:48;;;;;;;85.65;37.10;;;;;;;-2.35;100.00;99040.77;1737041;81;21538;-81
2021/01/22 07:29:27;;;;;;;88.70;37.75;;;;;;;-2.24;100.00;99041.19;1748173;81;21593;-82
2021/01/22 07:31:57;;;;;;;82.75;36.68;;;;;;;-2.18;100.00;99040.21;1759434;81;21479;-74
2021/01/22 07:34:43;;;;;;;85.03;34.80;;;;;;;-2.11;100.00;99041.39;1754978;81;21148;-76
2021/01/22 07:37:16;;;;;;;85.45;36.08;;;;;;;-1.98;100.00;99037.55;1753810;80;21432;-82
2021/01/22 07:39:43;;;;;;;;;;;;;;;-1.86;100.00;99035.05;1756467;80;21552;-79
2021/01/22 07:42:17;;;;;;;78.62;34.63;;;;;;;-1.70;100.00;99048.16;1758909;81;20205;-81
2021/01/22 07:44:49;;;;;;;78.90;34.63;;;;;;;-1.54;100.00;99047.84;1758342;81;21068;-72
2021/01/22 07:47:33;;;;;;;75.08;33.98;;;;;;;-1.31;100.00;99052.17;1757826;81;21193;-77
2021/01/22 07:50:14;;;;;;;83.82;36.30;;;;;;;-1.11;100.00;99049.70;1758463;81;21192;-70
2021/01/22 07:52:47;;;;;;;76.02;33.85;;;;;;;-0.95;100.00;99044.77;1758936;81;21973;-71
2021/01/22 07:55:21;;;;;;;;;;;;;;;-0.74;100.00;99037.18;1761678;81;21566;-72
2021/01/22 07:58:05;;;;;;;81.45;35.40;;;;;;;-0.43;99.87;99040.95;1759469;81;20259;-80
2021/01/22 08:00:39;;;;;;;76.55;36.28;;;;;;;-0.28;98.25;99039.45;1759519;80;21566;-80
2021/01/22 08:03:07;;;;;;;77.15;37.53;;;;;;;-0.34;96.07;99043.99;1750095;81;21103;-78
2021/01/22 08:05:36;;;;;;;73.35;35.45;;;;;;;-0.38;95.29;99029.39;1729228;83;21529;-79
2021/01/22 08:08:19;;;;;;;73.65;34.95;;;;;;;-0.51;94.46;99025.77;1728680;83;21105;-74
2021/01/22 08:10:47;;;;;;;78.67;35.73;;;;;;;-0.73;94.23;99034.77;1728996;82;21077;-77
2021/01/22 08:13:17;;;;;;;83.47;35.78;;;;;;;-0.91;94.67;99044.55;1729190;83;21096;-81
2021/01/22 08:18:22;;;;;;;83.05;34.60;;;;;;;-0.88;96.09;99030.56;1776511;79;22609;-78
2021/01/22 08:20:50;;;;;;;100.35;45.52;;;;;;;-0.82;96.27;99043.56;1746198;82;21470;-78
2021/01/22 08:23:20;;;;;;;92.47;42.67;;;;;;;-0.77;95.84;99035.53;1718940;82;22191;-78
2021/01/22 08:25:47;;;;;;;100.42;50.30;;;;;;;-0.81;95.19;99027.13;1719942;82;21574;-79
2021/01/22 08:28:15;;;;;;;65.28;32.73;;;;;;;-0.43;96.79;99033.39;1720046;83;21010;-75
2021/01/22 08:30:44;;;;;;;65.30;31.35;;;;;;;0.06;94.66;99033.22;1719460;83;21074;-77
2021/01/22 08:33:11;;;;;;;67.87;32.50;;;;;;;0.51;93.35;99035.38;1712798;83;20942;-74
2021/01/22 08:35:40;;;;;;;61.65;30.77;;;;;;;1.05;91.42;99033.69;1719316;83;21251;-78
2021/01/22 08:38:07;;;;;;;67.20;31.85;;;;;;;1.39;87.63;99028.60;1719377;83;21533;-78
2021/01/22 08:40:38;;;;;;;60.70;31.35;;;;;;;1.24;85.49;99027.49;1719570;83;20967;-80
2021/01/22 08:43:09;;;;;;;60.80;33.08;;;;;;;1.00;85.46;99049.35;1719723;83;21200;-77
2021/01/22 08:45:40;;;;;;;59.95;30.08;;;;;;;0.82;86.34;99051.17;1719871;83;20994;-80
2021/01/22 08:48:08;;;;;;;81.47;36.95;;;;;;;0.76;86.87;99045.47;1719912;83;21218;-84
2021/01/22 08:50:36;;;;;;;82.65;38.85;;;;;;;0.90;87.46;99050.66;1719780;82;20998;-79
2021/01/22 08:53:09;;;;;;;71.37;34.73;;;;;;;1.01;87.42;99040.16;1719866;83;21073;-81
2021/01/22 08:55:38;;;;;;;68.47;33.48;;;;;;;1.01;86.45;99030.70;1720032;83;21034;-81
2021/01/22 08:58:09;;;;;;;92.82;42.90;;;;;;;0.94;86.37;99036.36;1705867;83;21049;-78
2021/01/22 09:00:38;;;;;;;62.40;31.65;;;;;;;0.87;86.26;99034.44;1704645;83;21116;-83
2021/01/22 09:03:22;;;;;;;58.08;29.25;;;;;;;0.76;85.89;99027.37;1703600;83;21022;-84
2021/01/22 09:05:53;;;;;;;72.62;35.13;;;;;;;0.63;85.73;99029.20;1706924;82;21148;-85
2021/01/22 09:08:22;;;;;;;54.15;28.27;;;;;;;0.60;86.52;99018.38;1706501;83;20966;-81
2021/01/22 09:10:50;;;;;;;57.67;28.80;;;;;;;0.60;86.54;99022.97;1691057;84;21073;-81
2021/01/22 09:13:21;;;;;;;65.90;32.93;;;;;;;0.57;86.70;99024.34;1694870;83;21375;-77
2021/01/22 09:15:49;;;;;;;64.80;34.00;;;;;;;0.51;86.66;99023.23;1694857;83;21140;-78
2021/01/22 09:18:22;;;;;;;63.60;28.98;;;;;;;0.50;87.40;99014.31;1683408;83;21095;-80
2021/01/22 09:21:02;;;;;;;68.20;32.05;;;;;;;0.55;86.94;99018.39;1710762;83;21615;-77
2021/01/22 09:23:30;;;;;;;64.37;32.40;;;;;;;0.59;87.24;99014.06;1714487;83;21551;-77
2021/01/22 09:26:00;;;;;;;70.90;33.90;;;;;;;0.65;87.05;99012.19;1717273;83;21524;-76
2021/01/22 09:28:39;;;;;;;59.95;30.70;;;;;;;0.63;87.06;98998.95;1890224;76;22074;-79
2021/01/22 09:31:07;;;;;;;64.87;34.03;;;;;;;0.71;87.42;99007.09;1861080;77;20912;-75
2021/01/22 09:33:34;;;;;;;56.58;29.27;;;;;;;0.99;87.59;98993.67;1861079;77;21201;-75
2021/01/22 09:36:04;;;;;;;59.20;29.07;;;;;;;1.38;86.18;98998.58;1861116;77;21561;-77
2021/01/22 09:38:32;;;;;;;56.20;27.32;;;;;;;1.44;84.03;98989.39;1861088;77;21546;-73
2021/01/22 09:41:01;;;;;;;49.53;26.48;;;;;;;1.31;83.13;98992.08;1861040;77;20931;-75
2021/01/22 09:43:29;;;;;;;50.30;27.30;;;;;;;1.16;83.46;98986.11;1861158;77;21494;-76
2021/01/22 09:45:57;;;;;;;55.60;27.45;;;;;;;1.06;84.27;98990.71;1861071;77;21368;-79
2021/01/22 09:48:25;;;;;;;55.48;29.77;;;;;;;0.99;84.90;98990.42;1848855;76;20956;-79
2021/01/22 09:50:53;;;;;;;61.18;28.07;;;;;;;0.92;84.93;98992.56;1827388;78;20997;-80
2021/01/22 09:53:20;;;;;;;62.65;29.82;;;;;;;0.86;85.36;98985.52;1827887;78;21065;-84
2021/01/22 09:55:50;;;;;;;56.73;27.67;;;;;;;0.84;85.84;98983.62;1827445;78;21465;-78
2021/01/22 09:58:19;;;;;;;56.55;29.02;;;;;;;0.89;86.18;98988.23;1830383;77;20959;-89
2021/01/22 10:00:46;;;;;;;67.95;33.08;;;;;;;0.99;86.00;98977.45;1857083;77;20997;-78
2021/01/22 10:03:14;;;;;;;81.35;38.65;;;;;;;1.08;85.80;98978.55;1850101;77;21588;-82
2021/01/22 10:05:42;;;;;;;59.95;29.40;;;;;;;1.23;85.47;98977.20;1757906;81;21160;-80
2021/01/22 10:08:09;;;;;;;63.17;32.58;;;;;;;1.25;84.60;98975.04;1780627;80;20919;-81
2021/01/22 10:10:37;;;;;;;58.75;28.92;;;;;;;1.26;84.83;98977.20;1759119;81;21389;-72
2021/01/22 10:13:04;;;;;;;57.60;31.42;;;;;;;1.54;84.76;98970.46;1793150;77;21017;-79
2021/01/22 10:15:32;;;;;;;52.23;28.00;;;;;;;1.86;83.86;98964.19;1782321;80;21596;-74
2021/01/22 10:17:59;;;;;;;49.95;27.25;;;;;;;2.07;82.43;98958.20;1783234;78;21457;-74
2021/01/22 10:20:27;;;;;;;48.40;26.27;;;;;;;2.12;81.20;98958.19;1816568;79;21584;-74
2021/01/22 10:22:55;;;;;;;52.43;29.10;;;;;;;2.08;81.31;98952.25;1820489;78;21232;-75
2021/01/22 10:25:23;;;;;;;53.75;29.40;;;;;;;2.07;81.52;98948.73;1797777;78;20982;-75
2021/01/22 10:27:52;;;;;;;67.67;32.40;;;;;;;2.19;81.51;98947.88;1807892;79;21142;-78
2021/01/22 10:30:20;;;;;;;62.03;28.02;;;;;;;2.43;81.21;98945.88;1799476;78;21488;-75
2021/01/22 10:32:48;;;;;;;55.83;27.82;;;;;;;2.73;80.15;98936.81;1790552;80;20934;-77
2021/01/22 10:35:16;;;;;;;50.95;26.37;;;;;;;2.80;78.41;98929.19;1798348;78;22746;-77
2021/01/22 10:37:43;;;;;;;50.90;26.55;;;;;;;2.95;78.58;98929.88;1810145;79;20998;-73
2021/01/22 10:40:13;;;;;;;53.38;27.70;;;;;;;3.48;77.66;98925.94;1809099;78;21057;-81
2021/01/22 10:42:41;;;;;;;49.58;25.48;;;;;;;4.08;75.01;98919.65;1790797;80;21025;-92
2021/01/22 10:45:11;;;;;;;48.38;25.15;;;;;;;4.60;73.87;98917.41;1790002;79;20934;-80
2021/01/22 10:47:39;;;;;;;53.33;26.70;;;;;;;5.05;69.89;98911.05;1788368;80;21373;-77
2021/01/22 10:50:09;;;;;;;55.10;27.17;;;;;;;5.25;69.57;98912.07;1791476;80;20923;-78
2021/01/22 10:52:37;;;;;;;48.60;25.15;;;;;;;5.51;68.56;98904.86;1790719;78;21074;-79
2021/01/22 10:55:06;;;;;;;44.55;24.80;;;;;;;5.49;67.04;98908.44;1790386;78;21579;-78
2021/01/22 10:57:34;;;;;;;49.33;23.95;;;;;;;5.10;66.79;98902.81;1803763;78;21124;-74
2021/01/22 11:00:04;;;;;;;44.77;25.27;;;;;;;4.54;68.23;98896.02;1789643;79;21204;-82
2021/01/22 11:02:31;;;;;;;45.00;25.23;;;;;;;4.07;69.77;98896.84;1789674;80;21631;-83
2021/01/22 11:04:59;;;;;;;40.63;22.90;;;;;;;3.73;71.17;98898.31;1789501;80;21102;-82
2021/01/22 11:07:28;;;;;;;43.65;23.77;;;;;;;3.46;72.09;98910.52;1789462;79;21056;-81
2021/01/22 11:09:55;;;;;;;44.55;24.10;;;;;;;3.15;73.17;98895.03;1789498;80;21565;-84
2021/01/22 11:12:23;;;;;;;44.40;23.92;;;;;;;2.95;74.17;98893.27;1790410;78;21204;-80
2021/01/22 11:14:50;;;;;;;42.25;23.25;;;;;;;2.93;74.71;98885.16;1791492;80;20935;-86
2021/01/22 11:17:18;;;;;;;51.15;25.30;;;;;;;2.92;74.92;98884.89;1792119;80;21131;-85
2021/01/22 11:19:45;;;;;;;50.00;25.10;;;;;;;2.94;75.14;98880.00;1798552;78;21552;-88
2021/01/22 11:22:15;;;;;;;44.05;23.75;;;;;;;2.93;75.10;98876.48;1794134;78;21576;-88
2021/01/22 11:24:42;;;;;;;47.70;24.43;;;;;;;2.86;75.06;98886.05;1795174;78;21206;-81
2021/01/22 11:27:10;;;;;;;48.02;25.57;;;;;;;2.74;75.72;98881.52;1794747;78;21027;-82
2021/01/22 11:29:38;;;;;;;48.45;25.23;;;;;;;2.76;76.13;98876.62;1820680;78;20926;-81
2021/01/22 11:32:06;;;;;;;46.20;24.05;;;;;;;2.77;76.05;98879.59;1811825;78;21175;-81